Time;durP1;ratioP1;P1;durP2;ratioP2;P2;SDS_P1;SDS_P2;PMS_P1;PMS_P2;Temp;Humidity;BMP_temperature;BMP_pressure;BME280_temperature;BME280_humidity;BME280_pressure;Samples;Min_cycle;Max_cycle;Signal;HPM_P1;HPM_P2
2021/12/16 00:06:59;;;;;;;;;;;5.70;99.90;;;;;;4972278;28;20034;-67
2021/12/16 00:09:27;;;;;;;;;;;5.90;99.90;;;;;;5009889;28;20405;-68
2021/12/16 00:33:31;;;;;;;;;;;;;;;;;;4994394;28;19936;-67
2021/12/16 00:35:56;;;;;;;;;;;5.80;99.90;;;;;;5002236;28;19905;-69
2021/12/16 00:38:22;;;;;;;;;;;4.60;99.90;;;;;;4992980;28;19906;-68
2021/12/16 00:40:48;;;;;;;;;;;4.30;99.90;;;;;;4992798;28;20008;-68
2021/12/16 00:43:23;;;;;;;;;;;5.40;99.90;;;;;;4993548;28;19913;-68
2021/12/16 00:48:26;;;;;;;;;;;3.70;99.90;;;;;;4992509;28;19906;-69
2021/12/16 00:56:05;;;;;;;;;;;5.40;99.90;;;;;;5001227;28;19921;-67
2021/12/16 00:58:40;;;;;;;;;;;4.80;99.90;;;;;;5005962;28;19905;-69
2021/12/16 01:01:20;;;;;;;;;;;3.80;99.90;;;;;;5012891;28;19909;-68
2021/12/16 01:33:46;;;;;;;;;;;6.00;99.90;;;;;;5015822;28;20405;-67
2021/12/16 01:57:06;;;;;;;;;;;5.10;99.90;;;;;;5011604;28;19920;-67
2021/12/16 01:59:35;;;;;;;;;;;5.00;99.90;;;;;;5011425;28;19905;-68
2021/12/16 02:02:13;;;;;;;;;;;5.10;99.90;;;;;;5011928;28;20363;-69
2021/12/16 02:05:05;;;;;;;;;;;4.50;99.90;;;;;;5027341;28;19906;-68
2021/12/16 02:07:46;;;;;;;;;;;;;;;;;;5011961;28;19912;-70
2021/12/16 02:10:11;;;;;;;;;;;5.70;99.90;;;;;;5013003;28;19921;-68
2021/12/16 02:13:40;;;;;;;;;;;5.10;99.90;;;;;;5001303;28;19945;-69
2021/12/16 02:34:27;;;;;;;;;;;5.70;99.90;;;;;;5001019;28;19905;-67
2021/12/16 02:36:54;;;;;;;;;;;5.40;99.90;;;;;;4995542;28;19910;-67
2021/12/16 02:39:23;;;;;;;;;;;4.80;99.90;;;;;;4994930;28;19905;-67
2021/12/16 02:41:50;;;;;;;;;;;6.00;99.90;;;;;;4995621;28;19960;-69
2021/12/16 02:49:28;;;;;;;;;;;5.80;99.90;;;;;;4994347;28;19960;-69
2021/12/16 02:51:54;;;;;;;;;;;5.30;99.90;;;;;;4994953;28;20286;-68
2021/12/16 02:54:20;;;;;;;;;;;3.90;99.90;;;;;;4994593;28;19906;-69
2021/12/16 02:56:46;;;;;;;;;;;6.00;99.90;;;;;;4994394;28;20372;-69
2021/12/16 02:59:14;;;;;;;;;;;;;;;;;;5008918;28;20008;-69
2021/12/16 03:01:47;;;;;;;;;;;4.50;99.90;;;;;;5009853;28;19910;-68
2021/12/16 03:04:14;;;;;;;;;;;4.90;99.90;;;;;;4995024;28;19910;-68
2021/12/16 03:06:42;;;;;;;;;;;5.50;99.90;;;;;;5011085;28;19905;-69
2021/12/16 03:09:09;;;;;;;;;;;5.30;99.90;;;;;;4999798;28;19912;-69
2021/12/16 03:16:59;;;;;;;;;;;5.00;99.90;;;;;;5013761;28;20043;-69
2021/12/16 03:22:07;;;;;;;;;;;5.60;99.90;;;;;;5013706;28;19917;-69
2021/12/16 03:29:52;;;;;;;;;;;3.80;99.90;;;;;;5013396;28;19991;-67
2021/12/16 03:37:53;;;;;;;;;;;5.10;99.90;;;;;;5013764;28;20322;-67
2021/12/16 03:40:19;;;;;;;;;;;5.80;99.90;;;;;;5013992;28;19960;-68
2021/12/16 03:42:47;;;;;;;;;;;4.50;99.90;;;;;;5013865;28;19941;-70
2021/12/16 03:48:06;;;;;;;;;;;5.10;99.90;;;;;;5025166;28;19963;-68
2021/12/16 03:50:32;;;;;;;;;;;;;;;;;;5013934;28;19920;-68
2021/12/16 03:52:57;;;;;;;;;;;4.00;99.90;;;;;;5012426;28;19905;-68
2021/12/16 03:55:23;;;;;;;;;;;6.30;99.90;;;;;;5013693;28;19916;-69
2021/12/16 03:57:49;;;;;;;;;;;4.80;99.90;;;;;;5028303;28;19945;-68
2021/12/16 04:00:17;;;;;;;;;;;4.70;99.90;;;;;;5013478;28;19956;-69
2021/12/16 04:02:43;;;;;;;;;;;4.00;99.90;;;;;;5013451;28;19947;-68
2021/12/16 04:05:09;;;;;;;;;;;5.10;99.90;;;;;;5013413;28;19905;-68
2021/12/16 04:07:36;;;;;;;;;;;4.40;99.90;;;;;;5013435;28;20331;-69
2021/12/16 04:10:04;;;;;;;;;;;4.90;99.90;;;;;;5012806;28;19905;-69
2021/12/16 04:12:29;;;;;;;;;;;4.80;99.90;;;;;;5013219;28;20352;-69
2021/12/16 04:14:57;;;;;;;;;;;5.90;99.90;;;;;;5013493;28;19959;-69
2021/12/16 04:17:24;;;;;;;;;;;4.50;99.90;;;;;;5013329;28;20005;-69
2021/12/16 04:19:50;;;;;;;;;;;4.50;99.90;;;;;;5012406;28;19909;-69
2021/12/16 04:22:18;;;;;;;;;;;4.60;99.90;;;;;;5012733;28;19913;-68
2021/12/16 04:24:45;;;;;;;;;;;4.30;99.90;;;;;;5005110;28;19909;-69
2021/12/16 04:27:11;;;;;;;;;;;5.10;99.90;;;;;;5012643;28;19917;-69
2021/12/16 04:29:37;;;;;;;;;;;4.80;99.90;;;;;;5013827;28;19910;-69
2021/12/16 04:32:03;;;;;;;;;;;3.80;99.90;;;;;;5018666;28;19906;-69
2021/12/16 04:34:29;;;;;;;;;;;4.80;99.90;;;;;;5029310;28;20003;-68
2021/12/16 04:36:55;;;;;;;;;;;4.50;99.90;;;;;;5026998;28;20068;-69
2021/12/16 04:39:22;;;;;;;;;;;5.90;99.90;;;;;;5006804;28;20037;-69
2021/12/16 04:41:50;;;;;;;;;;;3.50;99.90;;;;;;4993033;28;19910;-69
2021/12/16 04:44:16;;;;;;;;;;;4.30;99.90;;;;;;4993781;28;20335;-68
2021/12/16 04:46:42;;;;;;;;;;;;;;;;;;4993602;28;19952;-68
2021/12/16 04:49:08;;;;;;;;;;;5.70;99.90;;;;;;4993103;28;19905;-67
2021/12/16 04:51:34;;;;;;;;;;;;;;;;;;4993614;28;20016;-68
2021/12/16 04:54:00;;;;;;;;;;;;;;;;;;4992183;28;19949;-67
2021/12/16 04:56:26;;;;;;;;;;;;;;;;;;5013135;23;19925;-63
2021/12/16 04:58:52;;;;;;;;;;;3.70;99.90;;;;;;5047924;28;19913;-61
2021/12/16 05:01:18;;;;;;;;;;;4.50;99.90;;;;;;5041248;28;19919;-60
2021/12/16 05:03:44;;;;;;;;;;;4.70;99.90;;;;;;5042709;28;20302;-62
2021/12/16 05:06:10;;;;;;;;;;;4.40;99.90;;;;;;5043258;28;19911;-62
2021/12/16 05:08:36;;;;;;;;;;;5.90;99.90;;;;;;5034440;28;20098;-61
2021/12/16 05:11:03;;;;;;;;;;;4.60;99.90;;;;;;5036269;28;19909;-62
2021/12/16 05:13:30;;;;;;;;;;;4.60;99.90;;;;;;5032975;28;19963;-61
2021/12/16 05:15:57;;;;;;;;;;;5.60;99.90;;;;;;5040064;28;19974;-71
2021/12/16 05:18:30;;;;;;;;;;;4.20;99.90;;;;;;5022370;28;19909;-70
2021/12/16 05:20:56;;;;;;;;;;;5.90;99.90;;;;;;5034011;28;19931;-70
2021/12/16 05:28:39;;;;;;;;;;;4.80;99.90;;;;;;5030416;28;19905;-69
2021/12/16 05:31:05;;;;;;;;;;;4.90;99.90;;;;;;5013370;28;20335;-69
2021/12/16 05:33:31;;;;;;;;;;;5.90;99.90;;;;;;5037691;28;19912;-69
2021/12/16 05:35:57;;;;;;;;;;;5.50;99.90;;;;;;5043261;28;20345;-68
2021/12/16 05:38:23;;;;;;;;;;;4.70;99.90;;;;;;5050771;28;19911;-68
2021/12/16 05:40:50;;;;;;;;;;;5.90;99.90;;;;;;5032741;28;19916;-69
2021/12/16 05:43:16;;;;;;;;;;;4.20;99.90;;;;;;5031695;28;19956;-69
2021/12/16 05:45:43;;;;;;;;;;;4.90;99.90;;;;;;5031835;28;19995;-69
2021/12/16 05:48:09;;;;;;;;;;;4.60;99.90;;;;;;5030564;28;19990;-69
2021/12/16 05:50:36;;;;;;;;;;;5.40;99.90;;;;;;5031501;28;19905;-71
2021/12/16 05:53:03;;;;;;;;;;;4.50;99.90;;;;;;5031514;28;19982;-68
2021/12/16 05:55:28;;;;;;;;;;;5.00;99.90;;;;;;5034230;28;19950;-66
2021/12/16 05:57:55;;;;;;;;;;;5.40;99.90;;;;;;5034562;28;19913;-67
2021/12/16 06:00:23;;;;;;;;;;;6.00;99.90;;;;;;5035064;28;19909;-67
2021/12/16 06:02:49;;;;;;;;;;;4.80;99.90;;;;;;5041333;28;19905;-68
2021/12/16 06:05:15;;;;;;;;;;;5.00;99.90;;;;;;5042715;28;19913;-67
2021/12/16 06:07:41;;;;;;;;;;;5.10;99.90;;;;;;5035465;28;19909;-68
2021/12/16 06:10:13;;;;;;;;;;;4.80;99.90;;;;;;5034106;28;19932;-68
2021/12/16 06:12:38;;;;;;;;;;;5.20;99.90;;;;;;5035206;28;19905;-70
2021/12/16 06:15:40;;;;;;;;;;;4.60;99.90;;;;;;5035283;28;19975;-70
2021/12/16 06:28:55;;;;;;;;;;;4.70;99.90;;;;;;5034155;28;19906;-69
2021/12/16 06:31:21;;;;;;;;;;;4.80;99.90;;;;;;5034937;28;19944;-69
2021/12/16 06:33:47;;;;;;;;;;;4.80;99.90;;;;;;5016928;28;19905;-69
2021/12/16 06:36:13;;;;;;;;;;;5.30;99.90;;;;;;5034841;28;19905;-66
2021/12/16 06:38:38;;;;;;;;;;;5.10;99.90;;;;;;5033908;28;19911;-68
2021/12/16 06:41:04;;;;;;;;;;;5.30;99.90;;;;;;5034230;28;20279;-69
2021/12/16 06:43:31;;;;;;;;;;;4.80;99.90;;;;;;5033533;28;19976;-70
2021/12/16 06:45:58;;;;;;;;;;;4.80;99.90;;;;;;5034658;28;19920;-68
2021/12/16 06:48:29;;;;;;;;;;;4.70;99.90;;;;;;5034391;28;19911;-68
2021/12/16 06:51:02;;;;;;;;;;;4.90;99.90;;;;;;5036886;28;19905;-70
2021/12/16 06:53:45;;;;;;;;;;;4.80;99.90;;;;;;5034761;28;19905;-71
2021/12/16 06:56:17;;;;;;;;;;;5.20;99.90;;;;;;5034349;28;19928;-69
2021/12/16 06:59:01;;;;;;;;;;;5.30;99.90;;;;;;5033271;28;20301;-64
2021/12/16 07:01:59;;;;;;;;;;;5.30;99.90;;;;;;5034266;28;20292;-68
2021/12/16 07:04:18;;;;;;;;;;;5.20;99.90;;;;;;5032864;28;19909;-69
2021/12/16 07:06:44;;;;;;;;;;;4.80;99.90;;;;;;5016117;28;19960;-68
2021/12/16 07:09:15;;;;;;;;;;;4.90;99.90;;;;;;5033370;28;19913;-68
2021/12/16 07:11:42;;;;;;;;;;;5.00;99.90;;;;;;5033779;28;19909;-69
2021/12/16 07:14:13;;;;;;;;;;;4.90;99.90;;;;;;5033870;28;19948;-61
2021/12/16 07:16:39;;;;;;;;;;;4.70;99.90;;;;;;5033870;28;19912;-65
2021/12/16 07:19:04;;;;;;;;;;;5.30;99.90;;;;;;5033682;28;19910;-64
2021/12/16 07:21:37;;;;;;;;;;;5.00;99.90;;;;;;5033683;28;19912;-62
2021/12/16 07:24:06;;;;;;;;;;;4.10;99.90;;;;;;5034175;28;19905;-60
2021/12/16 07:26:32;;;;;;;;;;;4.90;99.90;;;;;;5033898;28;19905;-62
2021/12/16 07:28:58;;;;;;;;;;;4.90;99.90;;;;;;5032844;28;19912;-60
2021/12/16 07:31:23;;;;;;;;;;;4.70;99.90;;;;;;5033914;28;19909;-62
2021/12/16 07:33:49;;;;;;;;;;;4.90;99.90;;;;;;5016244;28;19905;-61
2021/12/16 07:36:18;;;;;;;;;;;5.00;99.90;;;;;;5033966;28;20291;-62
2021/12/16 07:38:45;;;;;;;;;;;5.30;99.90;;;;;;5032868;28;19909;-61
2021/12/16 07:41:10;;;;;;;;;;;5.40;99.90;;;;;;5033776;28;19928;-61
2021/12/16 07:46:11;;;;;;;;;;;4.90;99.90;;;;;;5033391;28;19947;-63
2021/12/16 07:48:37;;;;;;;;;;;5.20;99.90;;;;;;5032779;28;19905;-64
2021/12/16 07:51:03;;;;;;;;;;;5.10;99.90;;;;;;5033786;28;19952;-61
2021/12/16 07:53:29;;;;;;;;;;;5.00;99.90;;;;;;5033462;28;19921;-63
2021/12/16 07:55:55;;;;;;;;;;;5.10;99.90;;;;;;5033524;28;19927;-63
2021/12/16 07:58:23;;;;;;;;;;;5.20;99.90;;;;;;5032035;28;19917;-63
2021/12/16 08:00:50;;;;;;;;;;;5.30;99.90;;;;;;5033294;28;19920;-61
2021/12/16 08:03:17;;;;;;;;;;;5.80;99.90;;;;;;5033284;28;19959;-63
2021/12/16 08:05:50;;;;;;;;;;;5.00;99.90;;;;;;5033223;28;19988;-63
2021/12/16 08:08:16;;;;;;;;;;;4.80;99.90;;;;;;5032367;28;19905;-61
2021/12/16 08:10:42;;;;;;;;;;;5.10;99.90;;;;;;5015254;28;20354;-62
2021/12/16 08:13:08;;;;;;;;;;;5.40;99.90;;;;;;5032652;28;20015;-61
2021/12/16 08:15:33;;;;;;;;;;;4.20;99.90;;;;;;5033327;28;19905;-63
2021/12/16 08:17:59;;;;;;;;;;;5.20;99.90;;;;;;5031737;28;19905;-62
2021/12/16 08:20:25;;;;;;;;;;;5.70;99.90;;;;;;5032624;28;19955;-63
2021/12/16 08:22:51;;;;;;;;;;;4.90;99.90;;;;;;5032749;28;20185;-62
2021/12/16 08:25:19;;;;;;;;;;;5.00;99.90;;;;;;5032740;28;19960;-63
2021/12/16 08:27:45;;;;;;;;;;;5.90;99.90;;;;;;5032998;28;19941;-63
2021/12/16 08:30:12;;;;;;;;;;;5.10;99.90;;;;;;5031854;28;19909;-63
2021/12/16 08:32:37;;;;;;;;;;;5.30;99.90;;;;;;5032424;28;19948;-63
2021/12/16 08:35:04;;;;;;;;;;;5.10;99.90;;;;;;5032798;28;20406;-61
2021/12/16 08:37:30;;;;;;;;;;;5.60;99.90;;;;;;5032393;28;19932;-63
2021/12/16 08:39:56;;;;;;;;;;;5.10;99.90;;;;;;5031609;28;19945;-63
2021/12/16 08:42:21;;;;;;;;;;;5.30;99.90;;;;;;5032127;28;19971;-63
2021/12/16 08:44:47;;;;;;;;;;;4.80;99.90;;;;;;5032171;28;19905;-62
2021/12/16 08:47:14;;;;;;;;;;;5.40;99.90;;;;;;5032450;28;20000;-62
2021/12/16 08:49:40;;;;;;;;;;;5.60;99.90;;;;;;5013984;28;20359;-63
2021/12/16 08:52:11;;;;;;;;;;;5.40;99.90;;;;;;5032416;28;19952;-64
2021/12/16 08:54:37;;;;;;;;;;;5.60;99.90;;;;;;5032232;28;19948;-64
2021/12/16 08:57:03;;;;;;;;;;;4.90;99.90;;;;;;5032170;28;19944;-63
2021/12/16 08:59:29;;;;;;;;;;;5.00;99.90;;;;;;5031534;28;19905;-63
2021/12/16 09:01:55;;;;;;;;;;;6.10;99.90;;;;;;5032074;28;19909;-64
2021/12/16 09:04:23;;;;;;;;;;;5.30;99.90;;;;;;5032399;28;19909;-64
2021/12/16 09:06:49;;;;;;;;;;;5.30;99.90;;;;;;5032060;28;20362;-64
2021/12/16 09:09:15;;;;;;;;;;;5.50;99.90;;;;;;5031486;28;19912;-63
2021/12/16 09:11:55;;;;;;;;;;;5.30;99.90;;;;;;5033089;28;19947;-64
2021/12/16 09:14:21;;;;;;;;;;;5.40;99.90;;;;;;5032957;28;19944;-63
2021/12/16 09:16:47;;;;;;;;;;;5.60;99.90;;;;;;5032416;28;19909;-63
2021/12/16 09:19:12;;;;;;;;;;;4.70;99.90;;;;;;5031354;28;19913;-62
2021/12/16 09:21:38;;;;;;;;;;;4.80;99.90;;;;;;5032228;28;19916;-64
2021/12/16 09:24:07;;;;;;;;;;;5.80;99.90;;;;;;5032018;28;19976;-63
2021/12/16 09:26:32;;;;;;;;;;;5.30;99.90;;;;;;5032056;28;19905;-63
2021/12/16 09:28:58;;;;;;;;;;;5.30;99.90;;;;;;5030970;28;19984;-63
2021/12/16 09:31:25;;;;;;;;;;;6.40;99.90;;;;;;5031956;28;19905;-63
2021/12/16 09:33:52;;;;;;;;;;;5.70;99.90;;;;;;5031247;28;20398;-65
2021/12/16 09:36:21;;;;;;;;;;;5.20;99.90;;;;;;5031988;28;19912;-62
2021/12/16 09:38:48;;;;;;;;;;;5.30;99.90;;;;;;5030542;28;19912;-62
2021/12/16 09:41:14;;;;;;;;;;;5.70;99.90;;;;;;5031657;28;19916;-64
2021/12/16 09:43:42;;;;;;;;;;;4.90;99.90;;;;;;5031932;28;19905;-64
2021/12/16 09:46:10;;;;;;;;;;;5.30;99.90;;;;;;5031733;28;20360;-64
2021/12/16 09:48:36;;;;;;;;;;;5.30;99.90;;;;;;5030715;28;19905;-62
2021/12/16 09:51:04;;;;;;;;;;;5.80;99.90;;;;;;5031802;28;19909;-64
2021/12/16 09:53:30;;;;;;;;;;;5.50;99.90;;;;;;5032034;28;19905;-61
2021/12/16 09:56:00;;;;;;;;;;;5.40;99.90;;;;;;5031690;28;19912;-61
2021/12/16 09:58:28;;;;;;;;;;;5.80;99.90;;;;;;5030844;28;19959;-61
2021/12/16 10:00:54;;;;;;;;;;;6.00;99.90;;;;;;5031593;28;20478;-61
2021/12/16 10:03:20;;;;;;;;;;;5.60;99.90;;;;;;5031271;28;19915;-61
2021/12/16 10:05:46;;;;;;;;;;;6.20;99.90;;;;;;5031558;28;19905;-62
2021/12/16 10:08:12;;;;;;;;;;;6.20;99.90;;;;;;5030981;28;19912;-62
2021/12/16 10:10:38;;;;;;;;;;;5.80;99.90;;;;;;5031543;28;19944;-62
2021/12/16 10:13:06;;;;;;;;;;;5.80;99.90;;;;;;5031901;28;19924;-62
2021/12/16 10:18:00;;;;;;;;;;;5.40;99.90;;;;;;5030472;28;19905;-63
2021/12/16 10:20:30;;;;;;;;;;;5.80;99.90;;;;;;5031209;28;19909;-62
2021/12/16 10:23:07;;;;;;;;;;;6.10;99.90;;;;;;5031748;28;19913;-63
2021/12/16 10:25:39;;;;;;;;;;;6.00;99.90;;;;;;5031285;28;19905;-62
2021/12/16 10:28:13;;;;;;;;;;;7.00;99.90;;;;;;5030695;28;20374;-63
2021/12/16 10:30:39;;;;;;;;;;;6.50;99.90;;;;;;5031898;28;19916;-63
2021/12/16 10:33:14;;;;;;;;;;;6.80;99.90;;;;;;5031426;28;20369;-63
2021/12/16 10:35:41;;;;;;;;;;;5.80;99.90;;;;;;5031304;28;19909;-63
2021/12/16 10:38:07;;;;;;;;;;;6.60;99.90;;;;;;5030348;28;19909;-64
2021/12/16 10:40:36;;;;;;;;;;;5.90;99.90;;;;;;5032316;28;19955;-63
2021/12/16 10:43:04;;;;;;;;;;;6.70;99.90;;;;;;5034577;28;19908;-63
2021/12/16 10:45:32;;;;;;;;;;;6.40;99.90;;;;;;5016726;28;19905;-64
2021/12/16 10:48:16;;;;;;;;;;;5.30;99.90;;;;;;5016055;28;19905;-63
2021/12/16 10:50:53;;;;;;;;;;;6.30;99.90;;;;;;5034654;28;19909;-63
2021/12/16 10:53:38;;;;;;;;;;;6.60;99.90;;;;;;5034476;28;19988;-64
2021/12/16 10:56:03;;;;;;;;;;;7.50;99.90;;;;;;5035503;28;19975;-63
2021/12/16 10:58:52;;;;;;;;;;;6.10;99.90;;;;;;5070734;23;19959;-70
2021/12/16 11:01:30;;;;;;;;;;;6.00;99.90;;;;;;5058978;28;20007;-68
2021/12/16 11:03:56;;;;;;;;;;;6.10;99.90;;;;;;5075061;28;20003;-68
2021/12/16 11:06:26;;;;;;;;;;;6.20;99.90;;;;;;5075249;28;19934;-69
2021/12/16 11:08:51;;;;;;;;;;;6.00;99.90;;;;;;5073894;28;19904;-69
2021/12/16 11:11:24;;;;;;;;;;;5.00;99.90;;;;;;5074591;28;19950;-70
2021/12/16 11:13:51;;;;;;;;;;;6.40;99.90;;;;;;5073456;28;19904;-70
2021/12/16 11:16:28;;;;;;;;;;;6.00;99.90;;;;;;5074790;28;19911;-70
2021/12/16 11:18:54;;;;;;;;;;;6.00;99.90;;;;;;5074128;28;19905;-69
2021/12/16 11:21:19;;;;;;;;;;;6.50;99.90;;;;;;5074535;28;20381;-70
2021/12/16 11:23:45;;;;;;;;;;;6.10;99.90;;;;;;5074707;28;20324;-69
2021/12/16 11:26:12;;;;;;;;;;;6.40;99.90;;;;;;5075136;28;19940;-69
2021/12/16 11:28:38;;;;;;;;;;;;;;;;;;5058294;28;19948;-69
2021/12/16 11:31:12;;;;;;;;;;;7.00;99.90;;;;;;5064071;28;19915;-69
2021/12/16 11:33:42;;;;;;;;;;;6.50;99.90;;;;;;5053890;28;20346;-69
2021/12/16 11:36:08;;;;;;;;;;;7.90;99.90;;;;;;5053930;28;19911;-69
2021/12/16 11:38:41;;;;;;;;;;;6.50;99.90;;;;;;5053179;28;19909;-70
2021/12/16 11:41:07;;;;;;;;;;;6.90;99.90;;;;;;5053445;28;19909;-68
2021/12/16 11:43:34;;;;;;;;;;;5.80;99.90;;;;;;5053483;28;19938;-69
2021/12/16 11:46:00;;;;;;;;;;;6.80;99.90;;;;;;5053533;28;20035;-71
2021/12/16 11:48:27;;;;;;;;;;;6.90;99.90;;;;;;5052752;28;20431;-70
2021/12/16 11:50:53;;;;;;;;;;;;;;;;;;5053899;28;20472;-69
2021/12/16 11:53:19;;;;;;;;;;;6.70;99.90;;;;;;5053669;28;19907;-69
2021/12/16 11:55:44;;;;;;;;;;;6.70;99.90;;;;;;5054575;28;19905;-71
2021/12/16 11:58:10;;;;;;;;;;;6.80;99.90;;;;;;5053635;28;19916;-68
2021/12/16 12:00:40;;;;;;;;;;;5.70;99.90;;;;;;5053618;28;19916;-69
2021/12/16 12:03:07;;;;;;;;;;;7.80;99.90;;;;;;5035695;28;19909;-70
2021/12/16 12:05:42;;;;;;;;;;;7.90;99.90;;;;;;5053665;28;19909;-70
2021/12/16 12:08:08;;;;;;;;;;;;;;;;;;5052465;28;20375;-70
2021/12/16 12:10:50;;;;;;;;;;;6.70;99.90;;;;;;5053308;28;19954;-69
2021/12/16 12:13:18;;;;;;;;;;;6.40;99.90;;;;;;5053147;28;20297;-69
2021/12/16 12:16:03;;;;;;;;;;;7.30;99.90;;;;;;5053374;28;19912;-69
2021/12/16 12:18:33;;;;;;;;;;;6.50;99.90;;;;;;5034372;28;20426;-69
2021/12/16 12:21:17;;;;;;;;;;;6.90;99.90;;;;;;5052516;28;20007;-71
2021/12/16 12:23:43;;;;;;;;;;;7.10;99.90;;;;;;5052831;28;19909;-71
2021/12/16 12:26:14;;;;;;;;;;;7.30;99.90;;;;;;5052993;28;19905;-70
2021/12/16 12:28:40;;;;;;;;;;;7.10;99.90;;;;;;5051127;28;19919;-70
2021/12/16 12:31:05;;;;;;;;;;;7.20;99.90;;;;;;5052723;28;20003;-70
2021/12/16 12:33:31;;;;;;;;;;;6.90;99.90;;;;;;5052955;28;19916;-68
2021/12/16 12:35:56;;;;;;;;;;;7.20;99.90;;;;;;5053207;28;19905;-68
2021/12/16 12:38:22;;;;;;;;;;;7.20;99.90;;;;;;5052095;28;19912;-69
2021/12/16 12:40:48;;;;;;;;;;;7.20;99.90;;;;;;5053032;28;19908;-70
2021/12/16 12:43:16;;;;;;;;;;;6.90;99.90;;;;;;5035138;28;19948;-69
2021/12/16 12:45:42;;;;;;;;;;;6.90;99.90;;;;;;5053120;28;19905;-69
2021/12/16 12:48:13;;;;;;;;;;;6.90;99.90;;;;;;5034352;28;19932;-69
2021/12/16 12:50:40;;;;;;;;;;;7.70;99.90;;;;;;5044388;28;19971;-72
2021/12/16 12:53:14;;;;;;;;;;;6.30;99.90;;;;;;5052303;28;20287;-74
2021/12/16 12:55:40;;;;;;;;;;;7.20;99.90;;;;;;5058770;28;19908;-74
2021/12/16 12:58:10;;;;;;;;;;;6.90;99.90;;;;;;5061565;28;19920;-74
2021/12/16 13:00:53;;;;;;;;;;;7.90;99.90;;;;;;5056826;28;19909;-76
2021/12/16 13:03:36;;;;;;;;;;;8.10;99.90;;;;;;5051815;28;19912;-74
2021/12/16 13:06:13;;;;;;;;;;;7.00;99.90;;;;;;5045158;28;20375;-76
2021/12/16 13:08:42;;;;;;;;;;;7.70;99.90;;;;;;5035576;28;19991;-76
2021/12/16 13:11:11;;;;;;;;;;;7.40;99.90;;;;;;5052905;28;19905;-76
2021/12/16 13:13:45;;;;;;;;;;;6.90;99.90;;;;;;5052104;28;19905;-76
2021/12/16 13:16:23;;;;;;;;;;;7.30;99.90;;;;;;5052796;28;19905;-76
2021/12/16 13:24:46;;;;;;;;;;;7.60;99.90;;;;;;5052626;28;19912;-78
2021/12/16 13:30:05;;;;;;;;;;;7.20;99.90;;;;;;5050147;28;19912;-77
2021/12/16 13:32:41;;;;;;;;;;;6.60;99.90;;;;;;5051792;28;19904;-75
2021/12/16 13:35:22;;;;;;;;;;;7.10;99.90;;;;;;5051862;28;19936;-75
2021/12/16 13:37:53;;;;;;;;;;;7.40;99.90;;;;;;5051504;28;19904;-75
2021/12/16 13:40:22;;;;;;;;;;;7.70;99.90;;;;;;5051876;28;20003;-74
2021/12/16 13:42:53;;;;;;;;;;;8.60;99.90;;;;;;5051217;28;20001;-75
2021/12/16 13:45:25;;;;;;;;;;;7.10;99.90;;;;;;5052059;28;19905;-75
2021/12/16 14:01:40;;;;;;;;;;;7.70;99.90;;;;;;5051805;28;19916;-75
2021/12/16 14:10:17;;;;;;;;;;;7.10;99.90;;;;;;5051116;28;20124;-75
2021/12/16 14:14:08;;;;;;;;;;;7.30;99.90;;;;;;5051697;28;20390;-75
2021/12/16 14:16:16;;;;;;;;;;;7.30;99.90;;;;;;5053175;28;19905;-76
2021/12/16 14:24:59;;;;;;;;;;;;;;;;;;5055526;28;19958;-74
2021/12/16 14:34:17;;;;;;;;;;;7.30;99.90;;;;;;5058690;28;19962;-71
2021/12/16 14:41:38;;;;;;;;;;;7.10;99.90;;;;;;5054925;28;19966;-76
2021/12/16 14:45:13;;;;;;;;;;;6.30;99.90;;;;;;5055493;28;19939;-75
2021/12/16 14:47:18;;;;;;;;;;;7.40;99.90;;;;;;5055510;28;19912;-72
2021/12/16 14:49:45;;;;;;;;;;;7.10;99.90;;;;;;5055264;28;19909;-74
2021/12/16 14:52:22;;;;;;;;;;;7.00;99.90;;;;;;5055155;28;19937;-73
2021/12/16 14:54:49;;;;;;;;;;;;;;;;;;5055216;28;19939;-76
2021/12/16 14:57:19;;;;;;;;;;;7.70;99.90;;;;;;5055608;28;19916;-76
2021/12/16 14:59:45;;;;;;;;;;;7.50;99.90;;;;;;5054665;28;19905;-75
2021/12/16 15:02:11;;;;;;;;;;;7.00;99.90;;;;;;5055012;28;19909;-73
2021/12/16 15:04:37;;;;;;;;;;;7.50;99.90;;;;;;5054703;28;19912;-72
2021/12/16 15:07:07;;;;;;;;;;;6.70;99.90;;;;;;5054805;28;20119;-75
2021/12/16 15:09:36;;;;;;;;;;;6.70;99.90;;;;;;5053772;28;19943;-76
2021/12/16 15:12:10;;;;;;;;;;;7.40;99.90;;;;;;5054619;28;19959;-76
2021/12/16 15:39:28;;;;;;;;;;;6.40;99.90;;;;;;5053067;28;20398;-76
2021/12/16 15:44:51;;;;;;;;;;;6.60;99.90;;;;;;5053394;28;19927;-70
2021/12/16 15:47:18;;;;;;;;;;;6.80;99.90;;;;;;5053870;28;19908;-71
2021/12/16 15:49:43;;;;;;;;;;;6.80;99.90;;;;;;5053135;28;19995;-69
2021/12/16 15:52:09;;;;;;;;;;;7.10;99.90;;;;;;5053744;28;19987;-70
2021/12/16 15:54:35;;;;;;;;;;;6.40;99.90;;;;;;5053753;28;19911;-71
2021/12/16 15:57:02;;;;;;;;;;;6.40;99.90;;;;;;5053702;28;20000;-68
2021/12/16 15:59:29;;;;;;;;;;;6.10;99.90;;;;;;5052472;28;19991;-70
2021/12/16 16:01:55;;;;;;;;;;;7.00;99.90;;;;;;5053748;28;19920;-69
2021/12/16 16:04:22;;;;;;;;;;;6.20;99.90;;;;;;5053667;28;19904;-68
2021/12/16 16:06:50;;;;;;;;;;;6.10;99.90;;;;;;5053650;28;19905;-70
2021/12/16 16:09:16;;;;;;;;;;;5.80;99.90;;;;;;5052995;28;20366;-69
2021/12/16 16:11:45;;;;;;;;;;;7.20;99.90;;;;;;5053452;28;20282;-69
2021/12/16 16:14:11;;;;;;;;;;;6.30;99.90;;;;;;5053232;28;19915;-69
2021/12/16 16:16:49;;;;;;;;;;;5.60;99.90;;;;;;5053142;28;19940;-69
2021/12/16 16:19:19;;;;;;;;;;;6.30;99.90;;;;;;5052370;28;19905;-70
2021/12/16 16:21:46;;;;;;;;;;;5.90;99.90;;;;;;5052901;28;19959;-70
2021/12/16 16:24:16;;;;;;;;;;;5.40;99.90;;;;;;5052998;28;20351;-68
2021/12/16 16:26:43;;;;;;;;;;;6.00;99.90;;;;;;5052811;28;19904;-69
2021/12/16 16:29:10;;;;;;;;;;;5.30;99.90;;;;;;5052619;28;19904;-71
2021/12/16 16:31:36;;;;;;;;;;;5.90;99.90;;;;;;5053646;28;19905;-69
2021/12/16 16:34:07;;;;;;;;;;;4.90;99.90;;;;;;5053866;28;19962;-69
2021/12/16 16:36:38;;;;;;;;;;;5.60;99.90;;;;;;5054208;28;19983;-69
2021/12/16 16:39:07;;;;;;;;;;;5.70;99.90;;;;;;5051468;28;19920;-69
2021/12/16 16:41:37;;;;;;;;;;;5.30;99.90;;;;;;5053451;28;19946;-68
2021/12/16 16:44:07;;;;;;;;;;;5.50;99.90;;;;;;5053716;28;19908;-68
2021/12/16 16:46:38;;;;;;;;;;;;;;;;;;5054900;28;19997;-68
2021/12/16 16:49:10;;;;;;;;;;;5.60;99.90;;;;;;5052788;28;20381;-70
2021/12/16 16:51:36;;;;;;;;;;;5.50;99.90;;;;;;5052851;28;20350;-68
2021/12/16 16:54:04;;;;;;;;;;;6.40;99.90;;;;;;5052590;28;19984;-68
2021/12/16 16:56:43;;;;;;;;;;;5.60;99.90;;;;;;5052651;28;19905;-68
2021/12/16 16:59:10;;;;;;;;;;;5.90;99.90;;;;;;5074877;22;20396;-63
2021/12/16 17:01:37;;;;;;;;;;;5.40;99.90;;;;;;5069118;28;19954;-64
2021/12/16 17:04:04;;;;;;;;;;;4.30;99.90;;;;;;5072216;28;19911;-64
2021/12/16 17:06:30;;;;;;;;;;;5.30;99.90;;;;;;5072276;28;19923;-62
2021/12/16 17:08:56;;;;;;;;;;;;;;;;;;5057547;28;19983;-64
2021/12/16 17:11:24;;;;;;;;;;;4.10;99.90;;;;;;5052287;28;19947;-63
2021/12/16 17:18:56;;;;;;;;;;;4.90;99.90;;;;;;5042010;28;19951;-64
2021/12/16 17:21:27;;;;;;;;;;;5.60;99.90;;;;;;5044959;28;20454;-64
2021/12/16 17:23:59;;;;;;;;;;;5.90;99.90;;;;;;5032004;28;19929;-63
2021/12/16 17:26:39;;;;;;;;;;;5.40;99.90;;;;;;5037830;28;19955;-63
2021/12/16 17:29:07;;;;;;;;;;;5.50;99.90;;;;;;5039664;28;19915;-64
2021/12/16 17:31:32;;;;;;;;;;;5.80;99.90;;;;;;5032079;28;20442;-64
2021/12/16 17:34:05;;;;;;;;;;;5.30;99.90;;;;;;5031971;28;19905;-65
2021/12/16 17:36:32;;;;;;;;;;;;;;;;;;5031693;28;20279;-62
2021/12/16 17:39:08;;;;;;;;;;;5.20;99.90;;;;;;5046072;28;19959;-63
2021/12/16 17:41:34;;;;;;;;;;;4.90;99.90;;;;;;5039351;28;19966;-71
2021/12/16 17:44:00;;;;;;;;;;;5.90;99.90;;;;;;5041481;28;19912;-70
2021/12/16 17:46:25;;;;;;;;;;;5.30;99.90;;;;;;5038249;28;19927;-71
2021/12/16 17:48:51;;;;;;;;;;;5.40;99.90;;;;;;5031291;28;19916;-70
2021/12/16 17:51:21;;;;;;;;;;;4.60;99.90;;;;;;5035799;28;19905;-70
2021/12/16 17:53:54;;;;;;;;;;;5.00;99.90;;;;;;5035734;28;19909;-70
2021/12/16 17:56:20;;;;;;;;;;;5.50;99.90;;;;;;5035886;28;19905;-70
2021/12/16 17:58:48;;;;;;;;;;;4.10;99.90;;;;;;5035037;28;19913;-70
2021/12/16 18:01:25;;;;;;;;;;;4.20;99.90;;;;;;5035672;28;19915;-69
2021/12/16 18:03:55;;;;;;;;;;;4.70;99.90;;;;;;5036250;28;19945;-70
2021/12/16 18:06:40;;;;;;;;;;;4.10;99.90;;;;;;5036001;28;20367;-70
2021/12/16 18:09:08;;;;;;;;;;;3.50;99.90;;;;;;5035345;28;20430;-69
2021/12/16 18:11:36;;;;;;;;;;;4.30;99.90;;;;;;5035730;28;19905;-69
2021/12/16 18:14:02;;;;;;;;;;;4.10;99.90;;;;;;5035361;28;19936;-69
2021/12/16 18:16:31;;;;;;;;;;;2.80;99.90;;;;;;5035664;28;19984;-69
2021/12/16 18:18:59;;;;;;;;;;;3.70;99.90;;;;;;5034875;28;19955;-69
2021/12/16 18:21:25;;;;;;;;;;;3.50;99.90;;;;;;5035151;28;19919;-71
2021/12/16 18:23:53;;;;;;;;;;;3.70;99.90;;;;;;5035531;28;20025;-70
2021/12/16 18:26:19;;;;;;;;;;;3.60;99.90;;;;;;5035116;28;19905;-70
2021/12/16 18:28:47;;;;;;;;;;;4.10;99.90;;;;;;5044489;28;19904;-71
2021/12/16 18:31:23;;;;;;;;;;;3.30;99.90;;;;;;5055391;28;19928;-70
2021/12/16 18:33:50;;;;;;;;;;;3.40;99.90;;;;;;5055015;28;20393;-69
2021/12/16 18:36:20;;;;;;;;;;;3.60;99.90;;;;;;5055324;28;19995;-70
2021/12/16 18:38:51;;;;;;;;;;;3.90;99.90;;;;;;5054906;28;20309;-70